Time;durP1;ratioP1;P1;durP2;ratioP2;P2;SDS_P1;SDS_P2;PMS_P1;PMS_P2;Temp;Humidity;BMP_temperature;BMP_pressure;BME280_temperature;BME280_humidity;BME280_pressure;Samples;Min_cycle;Max_cycle;Signal;HPM_P1;HPM_P2
2023/08/25 00:01:29;;;;;;;;;;;;;;;;;;5133819;27;19919;-75
2023/08/25 00:03:55;;;;;;;;;;;;;;;;;;5134934;27;19926;-75
2023/08/25 00:06:21;;;;;;;;;;;;;;;;;;5138017;27;20351;-74
2023/08/25 00:08:47;;;;;;;;;;;;;;;;;;5118742;27;20732;-74
2023/08/25 00:11:13;;;;;;;;;;;;;;;;;;5120931;27;20291;-74
2023/08/25 00:13:39;;;;;;;;;;;;;;;;;;5130098;27;19919;-74
2023/08/25 00:16:05;;;;;;;;;;;;;;;;;;5135993;27;19930;-74
2023/08/25 00:18:31;;;;;;;;;;;;;;;;;;5117395;27;20433;-73
2023/08/25 00:20:56;;;;;;;;;;;;;;;;;;5128711;27;20004;-74
2023/08/25 00:23:22;;;;;;;;;;;;;;;;;;5119949;27;20051;-75
2023/08/25 00:25:48;;;;;;;;;;;;;;;;;;5109447;27;19916;-74
2023/08/25 00:28:14;;;;;;;;;;;;;;;;;;5109212;27;19927;-75
2023/08/25 00:30:40;;;;;;;;;;;;;;;;;;5109881;27;19927;-77
2023/08/25 00:33:06;;;;;;;;;;;;;;;;;;5111522;27;19972;-74
2023/08/25 00:35:32;;;;;;;;;;;;;;;;;;5129402;27;19923;-75
2023/08/25 00:37:58;;;;;;;;;;;;;;;;;;5131287;27;19926;-74
2023/08/25 00:40:25;;;;;;;;;;;;;;;;;;5135153;27;20344;-74
2023/08/25 00:42:51;;;;;;;;;;;;;;;;;;5133622;27;19923;-73
2023/08/25 00:45:17;;;;;;;;;;;;;;;;;;5111506;27;19926;-73
2023/08/25 00:47:42;;;;;;;;;;;;;;;;;;5130752;27;19920;-73
2023/08/25 00:50:09;;;;;;;;;;;;;;;;;;5133751;27;19920;-74
2023/08/25 00:52:35;;;;;;;;;;;;;;;;;;5117340;27;19925;-73
2023/08/25 00:55:01;;;;;;;;;;;;;;;;;;5134158;27;20001;-74
2023/08/25 00:57:27;;;;;;;;;;;;;;;;;;5098977;28;20006;-73
2023/08/25 00:59:53;;;;;;;;;;;;;;;;;;5133649;27;19931;-73
2023/08/25 01:02:19;;;;;;;;;;;;;;;;;;5117190;27;20399;-73
2023/08/25 01:04:45;;;;;;;;;;;;;;;;;;5130169;27;20352;-73
2023/08/25 01:07:11;;;;;;;;;;;;;;;;;;5114555;27;19926;-74
2023/08/25 01:09:37;;;;;;;;;;;;;;;;;;5116060;27;19920;-74
2023/08/25 01:12:04;;;;;;;;;;;;;;;;;;5132991;27;19919;-73
2023/08/25 01:14:30;;;;;;;;;;;;;;;;;;5115452;27;19926;-73
2023/08/25 01:16:57;;;;;;;;;;;;;;;;;;5132259;27;20413;-73
2023/08/25 01:19:23;;;;;;;;;;;;;;;;;;5122567;27;19919;-74
2023/08/25 01:21:49;;;;;;;;;;;;;;;;;;5120111;27;19926;-73
2023/08/25 01:24:14;;;;;;;;;;;;;;;;;;5134001;27;19929;-74
2023/08/25 01:26:40;;;;;;;;;;;;;;;;;;5127245;27;19919;-73
2023/08/25 01:29:06;;;;;;;;;;;;;;;;;;5126245;27;20408;-73
2023/08/25 01:31:32;;;;;;;;;;;;;;;;;;5133392;27;19975;-73
2023/08/25 01:34:01;;;;;;;;;;;;;;;;;;5121175;27;20399;-73
2023/08/25 01:36:27;;;;;;;;;;;;;;;;;;5100426;28;19920;-73
2023/08/25 01:38:53;;;;;;;;;;;;;;;;;;5094862;28;19965;-73
2023/08/25 01:41:19;;;;;;;;;;;;;;;;;;5092954;28;19920;-74
2023/08/25 01:43:45;;;;;;;;;;;;;;;;;;5091941;28;19974;-74
2023/08/25 01:46:10;;;;;;;;;;;;;;;;;;5106197;28;20390;-73
2023/08/25 01:48:36;;;;;;;;;;;;;;;;;;5100416;28;19920;-73
2023/08/25 01:51:02;;;;;;;;;;;;;;;;;;5092679;28;19988;-74
2023/08/25 01:53:28;;;;;;;;;;;;;;;;;;5113404;28;19927;-73
2023/08/25 01:55:55;;;;;;;;;;;;;;;;;;5112926;28;19924;-73
2023/08/25 01:58:21;;;;;;;;;;;;;;;;;;5111505;28;21792;-75
2023/08/25 02:00:47;;;;;;;;;;;;;;;;;;5105626;28;19924;-74
2023/08/25 02:03:13;;;;;;;;;;;;;;;;;;5101571;28;20375;-74
2023/08/25 02:05:39;;;;;;;;;;;;;;;;;;5086490;28;19926;-76
2023/08/25 02:08:05;;;;;;;;;;;;;;;;;;5075240;28;19920;-73
2023/08/25 02:10:31;;;;;;;;;;;;;;;;;;5092773;28;20487;-73
2023/08/25 02:12:57;;;;;;;;;;;;;;;;;;5075141;28;19920;-74
2023/08/25 02:15:23;;;;;;;;;;;;;;;;;;5096072;28;19920;-73
2023/08/25 02:17:49;;;;;;;;;;;;;;;;;;5101538;27;19919;-73
2023/08/25 02:20:15;;;;;;;;;;;;;;;;;;5116132;27;20378;-73
2023/08/25 02:22:41;;;;;;;;;;;;;;;;;;5109176;28;19919;-75
2023/08/25 02:25:07;;;;;;;;;;;;;;;;;;5095170;28;19920;-73
2023/08/25 02:27:33;;;;;;;;;;;;;;;;;;5094849;28;19927;-73
2023/08/25 02:29:59;;;;;;;;;;;;;;;;;;5094560;28;19920;-73
2023/08/25 02:32:25;;;;;;;;;;;;;;;;;;5101648;27;19958;-73
2023/08/25 02:34:51;;;;;;;;;;;;;;;;;;5115063;27;19966;-73
2023/08/25 02:37:17;;;;;;;;;;;;;;;;;;5116099;27;19940;-73
2023/08/25 02:39:43;;;;;;;;;;;;;;;;;;5112960;27;19920;-73
2023/08/25 02:42:08;;;;;;;;;;;;;;;;;;5093811;28;19984;-73
2023/08/25 02:44:34;;;;;;;;;;;;;;;;;;5078210;28;19924;-74
2023/08/25 02:47:00;;;;;;;;;;;;;;;;;;5094794;28;19919;-73
2023/08/25 02:49:26;;;;;;;;;;;;;;;;;;5095530;28;20295;-74
2023/08/25 02:51:54;;;;;;;;;;;;;;;;;;5108688;27;19919;-73
2023/08/25 02:54:20;;;;;;;;;;;;;;;;;;5097275;27;19919;-73
2023/08/25 02:56:46;;;;;;;;;;;;;;;;;;5097495;27;19919;-76
2023/08/25 02:59:12;;;;;;;;;;;;;;;;;;5123108;27;20268;-73
2023/08/25 03:01:38;;;;;;;;;;;;;;;;;;5135146;27;19919;-73
2023/08/25 03:04:04;;;;;;;;;;;;;;;;;;5135460;27;19919;-73
2023/08/25 03:06:30;;;;;;;;;;;;;;;;;;5136182;27;19919;-73
2023/08/25 03:08:55;;;;;;;;;;;;;;;;;;5100217;27;20348;-73
2023/08/25 03:11:21;;;;;;;;;;;;;;;;;;5098140;27;20344;-73
2023/08/25 03:13:47;;;;;;;;;;;;;;;;;;5113691;27;19926;-76
2023/08/25 03:16:13;;;;;;;;;;;;;;;;;;5104231;28;19919;-73
2023/08/25 03:18:40;;;;;;;;;;;;;;;;;;5105782;27;19926;-73
2023/08/25 03:21:06;;;;;;;;;;;;;;;;;;5111602;28;20006;-73
2023/08/25 03:23:32;;;;;;;;;;;;;;;;;;5077853;28;20399;-73
2023/08/25 03:25:57;;;;;;;;;;;;;;;;;;5094306;28;19923;-74
2023/08/25 03:28:23;;;;;;;;;;;;;;;;;;5088223;27;19919;-73
2023/08/25 03:30:49;;;;;;;;;;;;;;;;;;5098047;27;19981;-75
2023/08/25 03:33:15;;;;;;;;;;;;;;;;;;5096678;28;19923;-73
2023/08/25 03:35:41;;;;;;;;;;;;;;;;;;5111579;28;19919;-73
2023/08/25 03:38:08;;;;;;;;;;;;;;;;;;5112655;27;19937;-73
2023/08/25 03:40:34;;;;;;;;;;;;;;;;;;5135106;27;19925;-72
2023/08/25 03:43:00;;;;;;;;;;;;;;;;;;5092481;28;20014;-73
2023/08/25 03:45:26;;;;;;;;;;;;;;;;;;5100026;27;19926;-73
2023/08/25 03:47:52;;;;;;;;;;;;;;;;;;5110482;27;19919;-76
2023/08/25 03:50:18;;;;;;;;;;;;;;;;;;5132397;27;20014;-73
2023/08/25 03:52:44;;;;;;;;;;;;;;;;;;5132993;27;19926;-73
2023/08/25 03:55:10;;;;;;;;;;;;;;;;;;5133766;27;20285;-73
2023/08/25 03:57:36;;;;;;;;;;;;;;;;;;5128973;27;19925;-73
2023/08/25 04:00:03;;;;;;;;;;;;;;;;;;5119088;27;19919;-73
2023/08/25 04:02:29;;;;;;;;;;;;;;;;;;5098074;27;19924;-73
2023/08/25 04:04:56;;;;;;;;;;;;;;;;;;5114956;27;19926;-73
2023/08/25 04:07:21;;;;;;;;;;;;;;;;;;5119037;27;19919;-73
2023/08/25 04:09:47;;;;;;;;;;;;;;;;;;5118824;27;20333;-73
2023/08/25 04:12:13;;;;;;;;;;;;;;;;;;5117891;27;20313;-73
2023/08/25 04:14:39;;;;;;;;;;;;;;;;;;5118003;27;19919;-73
2023/08/25 04:17:05;;;;;;;;;;;;;;;;;;5100776;27;20020;-74
2023/08/25 04:19:31;;;;;;;;;;;;;;;;;;5082532;28;20352;-74
2023/08/25 04:21:59;;;;;;;;;;;;;;;;;;5097445;28;20264;-73
2023/08/25 04:24:24;;;;;;;;;;;;;;;;;;5081260;28;19923;-73
2023/08/25 04:26:51;;;;;;;;;;;;;;;;;;5097676;28;19942;-73
2023/08/25 04:29:17;;;;;;;;;;;;;;;;;;5097273;28;20276;-73
2023/08/25 04:31:43;;;;;;;;;;;;;;;;;;5097699;28;20375;-73
2023/08/25 04:34:09;;;;;;;;;;;;;;;;;;5100887;27;19946;-73
2023/08/25 04:36:36;;;;;;;;;;;;;;;;;;5082720;28;19931;-73
2023/08/25 04:39:02;;;;;;;;;;;;;;;;;;5114363;27;19928;-73
2023/08/25 04:41:28;;;;;;;;;;;;;;;;;;5100730;27;19923;-73
2023/08/25 04:43:54;;;;;;;;;;;;;;;;;;5117451;27;19919;-73
2023/08/25 04:46:20;;;;;;;;;;;;;;;;;;5117757;27;19919;-74
2023/08/25 04:48:46;;;;;;;;;;;;;;;;;;5117594;27;19926;-73
2023/08/25 04:51:12;;;;;;;;;;;;;;;;;;5117554;27;19919;-73
2023/08/25 04:53:38;;;;;;;;;;;;;;;;;;5118060;27;19919;-73
2023/08/25 04:56:04;;;;;;;;;;;;;;;;;;5117570;27;20348;-73
2023/08/25 04:58:30;;;;;;;;;;;;;;;;;;5098422;27;20348;-73
2023/08/25 05:00:56;;;;;;;;;;;;;;;;;;5111015;28;19926;-74
2023/08/25 05:03:22;;;;;;;;;;;;;;;;;;5079331;28;20409;-73
2023/08/25 05:05:48;;;;;;;;;;;;;;;;;;5086103;27;19942;-73
2023/08/25 05:08:14;;;;;;;;;;;;;;;;;;5081896;28;19968;-73
2023/08/25 05:10:40;;;;;;;;;;;;;;;;;;5111406;27;19919;-73
2023/08/25 05:13:06;;;;;;;;;;;;;;;;;;5116264;27;19920;-72
2023/08/25 05:15:32;;;;;;;;;;;;;;;;;;5113877;28;20066;-73
2023/08/25 05:17:58;;;;;;;;;;;;;;;;;;5096608;28;19920;-75
2023/08/25 05:20:24;;;;;;;;;;;;;;;;;;5096898;28;20014;-73
2023/08/25 05:22:50;;;;;;;;;;;;;;;;;;5106149;28;19964;-73
2023/08/25 05:25:16;;;;;;;;;;;;;;;;;;5096435;28;20272;-73
2023/08/25 05:27:42;;;;;;;;;;;;;;;;;;5099820;28;19989;-73
2023/08/25 05:30:08;;;;;;;;;;;;;;;;;;5092842;28;19966;-73
2023/08/25 05:32:34;;;;;;;;;;;;;;;;;;5093143;28;20363;-73
2023/08/25 05:35:00;;;;;;;;;;;;;;;;;;5093105;28;19927;-76
2023/08/25 05:37:26;;;;;;;;;;;;;;;;;;5111656;28;19923;-73
2023/08/25 05:39:52;;;;;;;;;;;;;;;;;;5113673;28;19972;-72
2023/08/25 05:42:18;;;;;;;;;;;;;;;;;;5112466;28;20281;-73
2023/08/25 05:44:44;;;;;;;;;;;;;;;;;;5113502;28;19920;-73
2023/08/25 05:47:10;;;;;;;;;;;;;;;;;;5077454;28;19920;-73
2023/08/25 05:49:36;;;;;;;;;;;;;;;;;;5094209;28;19943;-73
2023/08/25 05:52:02;;;;;;;;;;;;;;;;;;5095844;28;19920;-75
2023/08/25 05:54:28;;;;;;;;;;;;;;;;;;5113331;28;19919;-73
2023/08/25 05:56:54;;;;;;;;;;;;;;;;;;5110316;28;20008;-72
2023/08/25 05:59:20;;;;;;;;;;;;;;;;;;5092104;28;19920;-73
2023/08/25 06:01:46;;;;;;;;;;;;;;;;;;5075412;28;19924;-73
2023/08/25 06:04:12;;;;;;;;;;;;;;;;;;5092288;28;19927;-73
2023/08/25 06:06:38;;;;;;;;;;;;;;;;;;5099074;28;19927;-73
2023/08/25 06:09:05;;;;;;;;;;;;;;;;;;5092217;28;20542;-76
2023/08/25 06:11:31;;;;;;;;;;;;;;;;;;5092953;28;19920;-73
2023/08/25 06:13:57;;;;;;;;;;;;;;;;;;5091451;28;20365;-73
2023/08/25 06:16:23;;;;;;;;;;;;;;;;;;5109937;28;20761;-74
2023/08/25 06:18:49;;;;;;;;;;;;;;;;;;5092405;28;19981;-73
2023/08/25 06:21:14;;;;;;;;;;;;;;;;;;5092497;28;19924;-73
2023/08/25 06:23:40;;;;;;;;;;;;;;;;;;5078633;28;19963;-73
2023/08/25 06:26:06;;;;;;;;;;;;;;;;;;5091876;28;20409;-70
2023/08/25 06:28:33;;;;;;;;;;;;;;;;;;5092480;28;20284;-68
2023/08/25 06:30:59;;;;;;;;;;;;;;;;;;5093482;28;19923;-68
2023/08/25 06:33:29;;;;;;;;;;;;;;;;;;5092331;28;20551;-70
2023/08/25 06:35:55;;;;;;;;;;;;;;;;;;5094920;28;19926;-70
2023/08/25 06:38:21;;;;;;;;;;;;;;;;;;5099910;27;19920;-74
2023/08/25 06:40:47;;;;;;;;;;;;;;;;;;5103578;28;19939;-74
2023/08/25 06:43:13;;;;;;;;;;;;;;;;;;5099856;28;20287;-74
2023/08/25 06:45:39;;;;;;;;;;;;;;;;;;5111032;28;20010;-75
2023/08/25 06:48:05;;;;;;;;;;;;;;;;;;5095015;28;20421;-74
2023/08/25 06:50:31;;;;;;;;;;;;;;;;;;5126676;27;19919;-75
2023/08/25 06:52:57;;;;;;;;;;;;;;;;;;5114617;27;19926;-75
2023/08/25 06:55:25;;;;;;;;;;;;;;;;;;5132321;27;19966;-75
2023/08/25 06:57:51;;;;;;;;;;;;;;;;;;5109323;27;19996;-75
2023/08/25 07:00:17;;;;;;;;;;;;;;;;;;5094997;28;19920;-75
2023/08/25 07:02:44;;;;;;;;;;;;;;;;;;5107714;28;19927;-74
2023/08/25 07:05:11;;;;;;;;;;;;;;;;;;5084919;28;19923;-77
2023/08/25 07:07:37;;;;;;;;;;;;;;;;;;5087974;28;19927;-74
2023/08/25 07:10:04;;;;;;;;;;;;;;;;;;5111942;28;19927;-74
2023/08/25 07:12:30;;;;;;;;;;;;;;;;;;5094575;28;19916;-75
2023/08/25 07:14:56;;;;;;;;;;;;;;;;;;5089965;28;19927;-74
2023/08/25 07:17:22;;;;;;;;;;;;;;;;;;5090656;28;19920;-74
2023/08/25 07:19:48;;;;;;;;;;;;;;;;;;5091490;28;19977;-74
2023/08/25 07:22:14;;;;;;;;;;;;;;;;;;5090689;28;20014;-75
2023/08/25 07:24:40;;;;;;;;;;;;;;;;;;5116890;27;19945;-75
2023/08/25 07:27:06;;;;;;;;;;;;;;;;;;5100641;28;19923;-74
2023/08/25 07:29:32;;;;;;;;;;;;;;;;;;5102122;28;20493;-67
2023/08/25 07:31:58;;;;;;;;;;;;;;;;;;5096018;28;19924;-67
2023/08/25 07:34:24;;;;;;;;;;;;;;;;;;5091799;28;19920;-67
2023/08/25 07:36:50;;;;;;;;;;;;;;;;;;5093555;28;19928;-69
2023/08/25 07:39:17;;;;;;;;;;;;;;;;;;5102759;28;19927;-69
2023/08/25 07:41:43;;;;;;;;;;;;;;;;;;5090706;28;20014;-69
2023/08/25 07:44:09;;;;;;;;;;;;;;;;;;5106199;28;20003;-68
2023/08/25 07:46:37;;;;;;;;;;;;;;;;;;5130783;28;20363;-68
2023/08/25 07:49:03;;;;;;;;;;;;;;;;;;5106875;27;19919;-69
2023/08/25 07:51:29;;;;;;;;;;;;;;;;;;5122756;28;20010;-68
2023/08/25 07:53:55;;;;;;;;;;;;;;;;;;5129500;28;20349;-69
2023/08/25 07:56:21;;;;;;;;;;;;;;;;;;5131778;28;19920;-69
2023/08/25 07:58:47;;;;;;;;;;;;;;;;;;5130900;28;19949;-69
2023/08/25 08:01:13;;;;;;;;;;;;;;;;;;5114135;28;20006;-68
2023/08/25 08:03:39;;;;;;;;;;;;;;;;;;5111856;28;19923;-68
2023/08/25 08:06:05;;;;;;;;;;;;;;;;;;5114684;28;19923;-68
2023/08/25 08:08:31;;;;;;;;;;;;;;;;;;5131867;28;20055;-68
2023/08/25 08:10:57;;;;;;;;;;;;;;;;;;5131573;28;19923;-68
2023/08/25 08:13:23;;;;;;;;;;;;;;;;;;5097730;27;20505;-68
2023/08/25 08:15:49;;;;;;;;;;;;;;;;;;5148361;27;19967;-74
2023/08/25 08:18:15;;;;;;;;;;;;;;;;;;5130530;27;20398;-76
2023/08/25 08:20:42;;;;;;;;;;;;;;;;;;5133975;27;20269;-72
2023/08/25 08:23:08;;;;;;;;;;;;;;;;;;5152724;27;19930;-72
2023/08/25 08:25:36;;;;;;;;;;;;;;;;;;5117065;27;19919;-72
2023/08/25 08:28:02;;;;;;;;;;;;;;;;;;5137638;27;20355;-73
2023/08/25 08:30:28;;;;;;;;;;;;;;;;;;5156295;27;19926;-73
2023/08/25 08:32:54;;;;;;;;;;;;;;;;;;5127099;27;19926;-72
2023/08/25 08:35:20;;;;;;;;;;;;;;;;;;5121186;27;19919;-75
2023/08/25 08:37:46;;;;;;;;;;;;;;;;;;5101060;27;19919;-72
2023/08/25 08:40:12;;;;;;;;;;;;;;;;;;5134146;27;19919;-74
2023/08/25 08:42:39;;;;;;;;;;;;;;;;;;5120468;27;19919;-72
2023/08/25 08:45:05;;;;;;;;;;;;;;;;;;5138131;27;19930;-73
2023/08/25 08:47:31;;;;;;;;;;;;;;;;;;5135093;27;19962;-73
2023/08/25 08:49:58;;;;;;;;;;;;;;;;;;5138130;27;20379;-73
2023/08/25 08:52:23;;;;;;;;;;;;;;;;;;5134543;27;19944;-77
2023/08/25 08:54:49;;;;;;;;;;;;;;;;;;5126854;27;19924;-72
2023/08/25 08:57:17;;;;;;;;;;;;;;;;;;5108289;27;19923;-72
2023/08/25 08:59:43;;;;;;;;;;;;;;;;;;5137019;27;19974;-72
2023/08/25 09:02:09;;;;;;;;;;;;;;;;;;5118649;27;19919;-73
2023/08/25 09:04:35;;;;;;;;;;;;;;;;;;5128437;27;19930;-75
2023/08/25 09:07:01;;;;;;;;;;;;;;;;;;5136120;27;20009;-75
2023/08/25 09:09:27;;;;;;;;;;;;;;;;;;5115691;27;19968;-78
2023/08/25 09:11:53;;;;;;;;;;;;;;;;;;5099768;28;19920;-73
2023/08/25 09:14:18;;;;;;;;;;;;;;;;;;5107129;27;20437;-73
2023/08/25 09:16:44;;;;;;;;;;;;;;;;;;5079348;28;20357;-72
2023/08/25 09:19:10;;;;;;;;;;;;;;;;;;5079963;28;19920;-73
2023/08/25 09:21:36;;;;;;;;;;;;;;;;;;5101060;28;19920;-73
2023/08/25 09:24:05;;;;;;;;;;;;;;;;;;5096608;28;19920;-73
2023/08/25 09:26:31;;;;;;;;;;;;;;;;;;5096623;28;19949;-73
2023/08/25 09:28:57;;;;;;;;;;;;;;;;;;5096185;28;19920;-73
2023/08/25 09:31:23;;;;;;;;;;;;;;;;;;5097140;28;19920;-73
2023/08/25 09:33:49;;;;;;;;;;;;;;;;;;5104507;27;19930;-73
2023/08/25 09:36:15;;;;;;;;;;;;;;;;;;5117427;27;19930;-72
2023/08/25 09:38:42;;;;;;;;;;;;;;;;;;5110443;27;20280;-73
2023/08/25 09:41:08;;;;;;;;;;;;;;;;;;5080249;28;20432;-73
2023/08/25 09:43:34;;;;;;;;;;;;;;;;;;5095333;28;20064;-73
2023/08/25 09:46:00;;;;;;;;;;;;;;;;;;5079982;28;19942;-72
2023/08/25 09:48:26;;;;;;;;;;;;;;;;;;5100192;27;20355;-73
2023/08/25 09:50:52;;;;;;;;;;;;;;;;;;5099548;27;19919;-73
2023/08/25 09:53:18;;;;;;;;;;;;;;;;;;5116335;27;19953;-73
2023/08/25 09:55:44;;;;;;;;;;;;;;;;;;5095985;28;19965;-73
2023/08/25 09:58:11;;;;;;;;;;;;;;;;;;5078600;28;19920;-73
2023/08/25 10:00:37;;;;;;;;;;;;;;;;;;5095932;28;20283;-73
2023/08/25 10:03:03;;;;;;;;;;;;;;;;;;5096076;28;19920;-73
2023/08/25 10:05:29;;;;;;;;;;;;;;;;;;5096664;28;20406;-74
2023/08/25 10:07:55;;;;;;;;;;;;;;;;;;5107298;28;20009;-75
2023/08/25 10:10:21;;;;;;;;;;;;;;;;;;5096165;28;19927;-75
2023/08/25 10:12:47;;;;;;;;;;;;;;;;;;5078298;28;19927;-75
2023/08/25 10:15:15;;;;;;;;;;;;;;;;;;5091927;28;20384;-74
2023/08/25 10:17:41;;;;;;;;;;;;;;;;;;5097169;28;20369;-73
2023/08/25 10:20:07;;;;;;;;;;;;;;;;;;5096003;28;19919;-74
2023/08/25 10:22:33;;;;;;;;;;;;;;;;;;5099804;28;19920;-77
2023/08/25 10:24:59;;;;;;;;;;;;;;;;;;5092418;28;20479;-74
2023/08/25 10:27:25;;;;;;;;;;;;;;;;;;5091543;28;20014;-73
2023/08/25 10:29:51;;;;;;;;;;;;;;;;;;5091787;28;19919;-73
2023/08/25 10:32:17;;;;;;;;;;;;;;;;;;5092130;28;20279;-74
2023/08/25 10:34:43;;;;;;;;;;;;;;;;;;5097368;28;19969;-73
2023/08/25 10:37:12;;;;;;;;;;;;;;;;;;5100748;28;20439;-73
2023/08/25 10:39:38;;;;;;;;;;;;;;;;;;5112119;28;20364;-73
2023/08/25 10:42:04;;;;;;;;;;;;;;;;;;5111906;28;19964;-73
2023/08/25 10:44:30;;;;;;;;;;;;;;;;;;5112339;28;19926;-73
2023/08/25 10:46:56;;;;;;;;;;;;;;;;;;5094763;28;19920;-73
2023/08/25 10:49:22;;;;;;;;;;;;;;;;;;5104269;28;19989;-73
2023/08/25 10:51:48;;;;;;;;;;;;;;;;;;5090242;28;19920;-74
2023/08/25 10:54:15;;;;;;;;;;;;;;;;;;5095289;28;19926;-73
2023/08/25 10:56:41;;;;;;;;;;;;;;;;;;5087906;28;19920;-74
2023/08/25 10:59:09;;;;;;;;;;;;;;;;;;5091041;28;19942;-74
2023/08/25 11:01:35;;;;;;;;;;;;;;;;;;5074338;28;20282;-74
2023/08/25 11:04:01;;;;;;;;;;;;;;;;;;5091572;28;19927;-74
2023/08/25 11:06:27;;;;;;;;;;;;;;;;;;5101057;28;20392;-74
2023/08/25 11:08:53;;;;;;;;;;;;;;;;;;5093358;28;19919;-70
2023/08/25 11:11:19;;;;;;;;;;;;;;;;;;5108505;28;20365;-67
2023/08/25 11:13:45;;;;;;;;;;;;;;;;;;5105618;27;19919;-71
2023/08/25 11:16:11;;;;;;;;;;;;;;;;;;5107243;27;19955;-75
2023/08/25 11:18:37;;;;;;;;;;;;;;;;;;5130936;27;20005;-74
2023/08/25 11:21:03;;;;;;;;;;;;;;;;;;5134580;27;20006;-74
2023/08/25 11:23:29;;;;;;;;;;;;;;;;;;5135381;27;19919;-75
2023/08/25 11:25:55;;;;;;;;;;;;;;;;;;5151064;27;19929;-75
2023/08/25 11:28:23;;;;;;;;;;;;;;;;;;5121148;27;19980;-74
2023/08/25 11:30:49;;;;;;;;;;;;;;;;;;5135089;27;19925;-74
2023/08/25 11:33:15;;;;;;;;;;;;;;;;;;5125388;27;19926;-75
2023/08/25 11:35:41;;;;;;;;;;;;;;;;;;5115642;27;20280;-75
2023/08/25 11:38:07;;;;;;;;;;;;;;;;;;5086974;28;20253;-75
2023/08/25 11:40:33;;;;;;;;;;;;;;;;;;5090098;27;19919;-75
2023/08/25 11:43:02;;;;;;;;;;;;;;;;;;5148690;27;20009;-75
2023/08/25 11:45:28;;;;;;;;;;;;;;;;;;5144266;27;19923;-75
2023/08/25 11:47:54;;;;;;;;;;;;;;;;;;5128126;27;20262;-75
2023/08/25 11:50:20;;;;;;;;;;;;;;;;;;5150225;27;19934;-75
2023/08/25 11:52:46;;;;;;;;;;;;;;;;;;5132928;27;19919;-75
2023/08/25 11:55:12;;;;;;;;;;;;;;;;;;5133310;27;20386;-75
2023/08/25 11:57:38;;;;;;;;;;;;;;;;;;5133220;27;19919;-74
2023/08/25 12:00:05;;;;;;;;;;;;;;;;;;5122726;27;19960;-75
2023/08/25 12:02:31;;;;;;;;;;;;;;;;;;5122980;27;19919;-74
2023/08/25 12:04:57;;;;;;;;;;;;;;;;;;5139038;27;19919;-74
2023/08/25 12:07:22;;;;;;;;;;;;;;;;;;5139806;27;19944;-72
2023/08/25 12:09:48;;;;;;;;;;;;;;;;;;5137770;27;20003;-74
2023/08/25 12:12:14;;;;;;;;;;;;;;;;;;5138622;27;19923;-73
2023/08/25 12:14:40;;;;;;;;;;;;;;;;;;5120034;27;19922;-73
2023/08/25 12:17:07;;;;;;;;;;;;;;;;;;5137080;27;19930;-74
2023/08/25 12:19:33;;;;;;;;;;;;;;;;;;5138180;27;20389;-74
2023/08/25 12:21:59;;;;;;;;;;;;;;;;;;5134433;27;19918;-73
2023/08/25 12:24:25;;;;;;;;;;;;;;;;;;5131293;27;20009;-73
2023/08/25 12:26:51;;;;;;;;;;;;;;;;;;5138172;27;19987;-73
2023/08/25 12:29:16;;;;;;;;;;;;;;;;;;5138484;27;19957;-73
2023/08/25 12:31:42;;;;;;;;;;;;;;;;;;5138436;27;19923;-74
2023/08/25 12:34:08;;;;;;;;;;;;;;;;;;5138455;27;19918;-74
2023/08/25 12:36:35;;;;;;;;;;;;;;;;;;5127488;27;20014;-73
2023/08/25 12:39:01;;;;;;;;;;;;;;;;;;5117776;27;20344;-73
2023/08/25 12:41:27;;;;;;;;;;;;;;;;;;5118468;27;19959;-73
2023/08/25 12:43:53;;;;;;;;;;;;;;;;;;5104568;27;19966;-73
2023/08/25 12:46:21;;;;;;;;;;;;;;;;;;5115925;27;19920;-73
2023/08/25 12:48:48;;;;;;;;;;;;;;;;;;5080596;28;19919;-73
2023/08/25 12:51:15;;;;;;;;;;;;;;;;;;5104606;27;19919;-73
2023/08/25 12:53:41;;;;;;;;;;;;;;;;;;5099610;27;20291;-75
2023/08/25 12:56:08;;;;;;;;;;;;;;;;;;5105313;27;19998;-75
2023/08/25 12:58:34;;;;;;;;;;;;;;;;;;5106834;27;20372;-75
2023/08/25 13:01:04;;;;;;;;;;;;;;;;;;5097853;27;19920;-75
2023/08/25 13:03:30;;;;;;;;;;;;;;;;;;5108352;27;19957;-75
2023/08/25 13:05:55;;;;;;;;;;;;;;;;;;5108934;27;20319;-75
2023/08/25 13:08:21;;;;;;;;;;;;;;;;;;5105654;27;20023;-75
2023/08/25 13:10:49;;;;;;;;;;;;;;;;;;5099279;27;19930;-75
2023/08/25 13:13:15;;;;;;;;;;;;;;;;;;5087055;27;19923;-74
2023/08/25 13:15:41;;;;;;;;;;;;;;;;;;5105005;27;19935;-75
2023/08/25 13:18:07;;;;;;;;;;;;;;;;;;5106803;27;19942;-75
2023/08/25 13:20:33;;;;;;;;;;;;;;;;;;5109614;27;20373;-75
2023/08/25 13:22:59;;;;;;;;;;;;;;;;;;5104295;27;19920;-75
2023/08/25 13:25:25;;;;;;;;;;;;;;;;;;5102297;27;19930;-75
2023/08/25 13:27:51;;;;;;;;;;;;;;;;;;5105275;27;19923;-78
2023/08/25 13:30:17;;;;;;;;;;;;;;;;;;5105148;27;20354;-75
2023/08/25 13:32:43;;;;;;;;;;;;;;;;;;5111412;27;20267;-75
2023/08/25 13:35:09;;;;;;;;;;;;;;;;;;5112019;27;19923;-76
2023/08/25 13:37:35;;;;;;;;;;;;;;;;;;5099836;27;19927;-75
2023/08/25 13:40:01;;;;;;;;;;;;;;;;;;5108316;27;20010;-74
2023/08/25 13:42:27;;;;;;;;;;;;;;;;;;5084542;27;19969;-75
2023/08/25 13:44:53;;;;;;;;;;;;;;;;;;5086779;27;20028;-77
2023/08/25 13:47:19;;;;;;;;;;;;;;;;;;5105134;27;19926;-75
2023/08/25 13:49:45;;;;;;;;;;;;;;;;;;5107354;27;19923;-76
2023/08/25 13:52:11;;;;;;;;;;;;;;;;;;5086168;27;19919;-77
2023/08/25 13:54:37;;;;;;;;;;;;;;;;;;5115477;27;19923;-75
2023/08/25 13:57:03;;;;;;;;;;;;;;;;;;5115506;27;20321;-75
2023/08/25 13:59:29;;;;;;;;;;;;;;;;;;5104155;27;19919;-75
2023/08/25 14:01:55;;;;;;;;;;;;;;;;;;5108309;27;19970;-78
2023/08/25 14:04:21;;;;;;;;;;;;;;;;;;5107718;27;19920;-76
2023/08/25 14:06:47;;;;;;;;;;;;;;;;;;5103388;27;20333;-76
2023/08/25 14:09:13;;;;;;;;;;;;;;;;;;5106478;27;19926;-76
2023/08/25 14:11:39;;;;;;;;;;;;;;;;;;5110604;27;19966;-76
2023/08/25 14:14:05;;;;;;;;;;;;;;;;;;5105819;27;19924;-77
2023/08/25 14:16:31;;;;;;;;;;;;;;;;;;5107952;27;20003;-76
2023/08/25 14:18:57;;;;;;;;;;;;;;;;;;5106877;27;19920;-79
2023/08/25 14:21:23;;;;;;;;;;;;;;;;;;5126376;27;20424;-77
2023/08/25 14:23:49;;;;;;;;;;;;;;;;;;5108529;27;20363;-77
2023/08/25 14:26:15;;;;;;;;;;;;;;;;;;5104763;27;19968;-76
2023/08/25 14:28:41;;;;;;;;;;;;;;;;;;5087246;27;19920;-76
2023/08/25 14:31:07;;;;;;;;;;;;;;;;;;5106135;27;19919;-77
2023/08/25 14:33:33;;;;;;;;;;;;;;;;;;5104690;27;20360;-77
2023/08/25 14:35:59;;;;;;;;;;;;;;;;;;5090000;27;20291;-78
2023/08/25 14:38:25;;;;;;;;;;;;;;;;;;5106556;27;19934;-76
2023/08/25 14:40:51;;;;;;;;;;;;;;;;;;5104400;27;19919;-75
2023/08/25 14:43:17;;;;;;;;;;;;;;;;;;5104038;27;19966;-75
2023/08/25 14:45:43;;;;;;;;;;;;;;;;;;5106681;27;19920;-76
2023/08/25 14:48:09;;;;;;;;;;;;;;;;;;5103223;27;19962;-76
2023/08/25 14:50:35;;;;;;;;;;;;;;;;;;5107020;27;19924;-77
2023/08/25 14:53:01;;;;;;;;;;;;;;;;;;5104441;27;19919;-78
2023/08/25 14:55:27;;;;;;;;;;;;;;;;;;5105859;27;19923;-76
2023/08/25 14:57:52;;;;;;;;;;;;;;;;;;5102993;27;19945;-75
2023/08/25 15:00:18;;;;;;;;;;;;;;;;;;5104184;27;19923;-75
2023/08/25 15:02:44;;;;;;;;;;;;;;;;;;5108993;27;19997;-75
2023/08/25 15:05:11;;;;;;;;;;;;;;;;;;5103492;27;19927;-76
2023/08/25 15:07:37;;;;;;;;;;;;;;;;;;5106700;27;20342;-75
2023/08/25 15:10:04;;;;;;;;;;;;;;;;;;5102462;27;19968;-77
2023/08/25 15:12:30;;;;;;;;;;;;;;;;;;5095244;27;20348;-76
2023/08/25 15:14:59;;;;;;;;;;;;;;;;;;5111720;27;19970;-76
2023/08/25 15:17:25;;;;;;;;;;;;;;;;;;5110495;27;19972;-76
2023/08/25 15:19:51;;;;;;;;;;;;;;;;;;5109160;27;19920;-76
2023/08/25 15:22:17;;;;;;;;;;;;;;;;;;5101998;27;19920;-75
2023/08/25 15:24:43;;;;;;;;;;;;;;;;;;5105486;27;20006;-75
2023/08/25 15:27:09;;;;;;;;;;;;;;;;;;5086851;28;19923;-75
2023/08/25 15:29:35;;;;;;;;;;;;;;;;;;5086531;28;19958;-75
2023/08/25 15:32:02;;;;;;;;;;;;;;;;;;5086278;28;19967;-75
2023/08/25 15:34:28;;;;;;;;;;;;;;;;;;5105816;28;19919;-75
2023/08/25 15:36:54;;;;;;;;;;;;;;;;;;5103524;28;19925;-75
2023/08/25 15:39:20;;;;;;;;;;;;;;;;;;5104325;28;19927;-75
2023/08/25 15:41:46;;;;;;;;;;;;;;;;;;5103129;28;19923;-76
2023/08/25 15:44:12;;;;;;;;;;;;;;;;;;5079694;28;19924;-76
2023/08/25 15:46:38;;;;;;;;;;;;;;;;;;5104508;28;20015;-74
2023/08/25 15:49:04;;;;;;;;;;;;;;;;;;5111208;27;19927;-76
2023/08/25 15:51:30;;;;;;;;;;;;;;;;;;5116231;28;19942;-76
2023/08/25 15:53:56;;;;;;;;;;;;;;;;;;5115297;27;19926;-76
2023/08/25 15:56:22;;;;;;;;;;;;;;;;;;5121528;27;19926;-76
2023/08/25 15:58:48;;;;;;;;;;;;;;;;;;5100055;27;19919;-76
2023/08/25 16:01:14;;;;;;;;;;;;;;;;;;5116953;27;20416;-76
2023/08/25 16:03:40;;;;;;;;;;;;;;;;;;5116630;27;19925;-76
2023/08/25 16:06:07;;;;;;;;;;;;;;;;;;5107327;28;19988;-76
2023/08/25 16:08:33;;;;;;;;;;;;;;;;;;5116307;28;19977;-75
2023/08/25 16:10:59;;;;;;;;;;;;;;;;;;5094814;28;19959;-76
2023/08/25 16:13:25;;;;;;;;;;;;;;;;;;5116916;27;19919;-78
2023/08/25 16:15:51;;;;;;;;;;;;;;;;;;5101010;28;19968;-77
2023/08/25 16:18:17;;;;;;;;;;;;;;;;;;5099781;27;19972;-77
2023/08/25 16:20:43;;;;;;;;;;;;;;;;;;5134106;27;19926;-78
2023/08/25 16:23:09;;;;;;;;;;;;;;;;;;5116801;27;19919;-79
2023/08/25 16:25:35;;;;;;;;;;;;;;;;;;5133496;27;19934;-78
2023/08/25 16:28:01;;;;;;;;;;;;;;;;;;5115292;28;20287;-79
2023/08/25 16:30:28;;;;;;;;;;;;;;;;;;5100256;27;20075;-81
2023/08/25 16:32:55;;;;;;;;;;;;;;;;;;5108361;27;20031;-83
2023/08/25 16:35:21;;;;;;;;;;;;;;;;;;5094055;28;20314;-77
2023/08/25 16:37:47;;;;;;;;;;;;;;;;;;5111806;28;19930;-82